sensor_id;sensor_type;location;lat;lon;timestamp;P1;durP1;ratioP1;P2;durP2;ratioP2
4174;SDS011;2101;48.290;14.382;2022-12-18T00:01:41;231.83;;;20.23;;
4174;SDS011;2101;48.290;14.382;2022-12-18T00:04:01;112.83;;;18.20;;
4174;SDS011;2101;48.290;14.382;2022-12-18T00:06:32;126.40;;;16.13;;
4174;SDS011;2101;48.290;14.382;2022-12-18T00:08:59;117.03;;;16.07;;
4174;SDS011;2101;48.290;14.382;2022-12-18T00:11:26;282.40;;;20.60;;
4174;SDS011;2101;48.290;14.382;2022-12-18T00:13:53;178.27;;;16.47;;
4174;SDS011;2101;48.290;14.382;2022-12-18T00:16:20;190.80;;;17.20;;
4174;SDS011;2101;48.290;14.382;2022-12-18T00:18:50;312.00;;;23.33;;
4174;SDS011;2101;48.290;14.382;2022-12-18T00:21:18;295.53;;;22.80;;
4174;SDS011;2101;48.290;14.382;2022-12-18T00:23:44;433.80;;;19.50;;
4174;SDS011;2101;48.290;14.382;2022-12-18T00:26:12;265.30;;;18.20;;
4174;SDS011;2101;48.290;14.382;2022-12-18T00:28:41;217.97;;;15.50;;
4174;SDS011;2101;48.290;14.382;2022-12-18T00:31:08;187.27;;;11.50;;
4174;SDS011;2101;48.290;14.382;2022-12-18T00:33:35;188.73;;;16.37;;
4174;SDS011;2101;48.290;14.382;2022-12-18T00:36:04;188.43;;;15.80;;
4174;SDS011;2101;48.290;14.382;2022-12-18T00:38:31;115.27;;;13.07;;
4174;SDS011;2101;48.290;14.382;2022-12-18T00:40:57;360.00;;;18.90;;
4174;SDS011;2101;48.290;14.382;2022-12-18T00:43:23;231.97;;;16.43;;
4174;SDS011;2101;48.290;14.382;2022-12-18T00:45:49;183.73;;;16.83;;
4174;SDS011;2101;48.290;14.382;2022-12-18T00:48:15;120.90;;;15.10;;
4174;SDS011;2101;48.290;14.382;2022-12-18T00:50:42;122.30;;;12.10;;
4174;SDS011;2101;48.290;14.382;2022-12-18T00:53:08;135.23;;;14.80;;
4174;SDS011;2101;48.290;14.382;2022-12-18T00:55:34;81.20;;;13.40;;
4174;SDS011;2101;48.290;14.382;2022-12-18T00:58:01;84.87;;;13.37;;
4174;SDS011;2101;48.290;14.382;2022-12-18T01:00:28;72.70;;;13.10;;
4174;SDS011;2101;48.290;14.382;2022-12-18T01:02:54;45.63;;;10.30;;
4174;SDS011;2101;48.290;14.382;2022-12-18T01:05:20;52.97;;;11.40;;
4174;SDS011;2101;48.290;14.382;2022-12-18T01:07:46;31.77;;;9.40;;
4174;SDS011;2101;48.290;14.382;2022-12-18T01:10:13;38.47;;;10.10;;
4174;SDS011;2101;48.290;14.382;2022-12-18T01:12:42;35.00;;;9.87;;
4174;SDS011;2101;48.290;14.382;2022-12-18T01:15:09;43.60;;;11.00;;
4174;SDS011;2101;48.290;14.382;2022-12-18T01:17:35;30.17;;;8.60;;
4174;SDS011;2101;48.290;14.382;2022-12-18T01:20:01;39.30;;;7.90;;
4174;SDS011;2101;48.290;14.382;2022-12-18T01:22:47;24.67;;;5.57;;
4174;SDS011;2101;48.290;14.382;2022-12-18T01:25:13;24.27;;;5.20;;
4174;SDS011;2101;48.290;14.382;2022-12-18T01:27:42;30.07;;;8.43;;
4174;SDS011;2101;48.290;14.382;2022-12-18T01:30:12;24.33;;;6.30;;
4174;SDS011;2101;48.290;14.382;2022-12-18T01:32:41;26.50;;;7.23;;
4174;SDS011;2101;48.290;14.382;2022-12-18T01:35:08;28.43;;;7.10;;
4174;SDS011;2101;48.290;14.382;2022-12-18T01:37:35;29.83;;;7.57;;
4174;SDS011;2101;48.290;14.382;2022-12-18T01:40:01;25.13;;;6.27;;
4174;SDS011;2101;48.290;14.382;2022-12-18T01:42:27;26.77;;;7.03;;
4174;SDS011;2101;48.290;14.382;2022-12-18T01:53:02;19.33;;;5.80;;
4174;SDS011;2101;48.290;14.382;2022-12-18T01:55:32;21.47;;;5.90;;
4174;SDS011;2101;48.290;14.382;2022-12-18T01:58:02;24.30;;;5.40;;
4174;SDS011;2101;48.290;14.382;2022-12-18T02:00:31;24.37;;;5.93;;
4174;SDS011;2101;48.290;14.382;2022-12-18T02:02:57;21.33;;;4.90;;
4174;SDS011;2101;48.290;14.382;2022-12-18T02:05:29;15.07;;;4.10;;
4174;SDS011;2101;48.290;14.382;2022-12-18T02:10:35;15.40;;;3.80;;
4174;SDS011;2101;48.290;14.382;2022-12-18T02:15:57;18.87;;;5.30;;
4174;SDS011;2101;48.290;14.382;2022-12-18T02:18:33;17.60;;;3.67;;
4174;SDS011;2101;48.290;14.382;2022-12-18T02:21:08;18.73;;;4.30;;
4174;SDS011;2101;48.290;14.382;2022-12-18T02:26:18;12.87;;;3.50;;
4174;SDS011;2101;48.290;14.382;2022-12-18T02:28:47;13.57;;;3.87;;
4174;SDS011;2101;48.290;14.382;2022-12-18T02:31:19;20.80;;;5.23;;
4174;SDS011;2101;48.290;14.382;2022-12-18T02:33:47;16.30;;;4.50;;
4174;SDS011;2101;48.290;14.382;2022-12-18T02:36:15;18.97;;;4.33;;
4174;SDS011;2101;48.290;14.382;2022-12-18T02:38:42;12.30;;;3.13;;
4174;SDS011;2101;48.290;14.382;2022-12-18T02:41:10;17.40;;;4.13;;
4174;SDS011;2101;48.290;14.382;2022-12-18T02:43:40;11.17;;;2.30;;
4174;SDS011;2101;48.290;14.382;2022-12-18T02:49:10;13.10;;;2.47;;
4174;SDS011;2101;48.290;14.382;2022-12-18T02:51:44;45.87;;;3.40;;
4174;SDS011;2101;48.290;14.382;2022-12-18T02:54:17;16.93;;;4.67;;
4174;SDS011;2101;48.290;14.382;2022-12-18T02:56:50;12.33;;;2.97;;
4174;SDS011;2101;48.290;14.382;2022-12-18T02:59:19;14.77;;;2.97;;
4174;SDS011;2101;48.290;14.382;2022-12-18T03:04:19;11.40;;;2.67;;
4174;SDS011;2101;48.290;14.382;2022-12-18T03:06:48;12.17;;;2.83;;
4174;SDS011;2101;48.290;14.382;2022-12-18T03:09:21;18.83;;;3.40;;
4174;SDS011;2101;48.290;14.382;2022-12-18T03:11:53;13.80;;;2.83;;
4174;SDS011;2101;48.290;14.382;2022-12-18T03:14:39;15.73;;;2.80;;
4174;SDS011;2101;48.290;14.382;2022-12-18T03:17:08;18.63;;;3.70;;
4174;SDS011;2101;48.290;14.382;2022-12-18T03:19:38;11.97;;;3.10;;
4174;SDS011;2101;48.290;14.382;2022-12-18T03:22:04;10.77;;;2.67;;
4174;SDS011;2101;48.290;14.382;2022-12-18T03:24:32;17.07;;;4.30;;
4174;SDS011;2101;48.290;14.382;2022-12-18T03:27:02;10.83;;;2.90;;
4174;SDS011;2101;48.290;14.382;2022-12-18T03:29:33;8.23;;;1.63;;
4174;SDS011;2101;48.290;14.382;2022-12-18T03:32:02;16.33;;;3.00;;
4174;SDS011;2101;48.290;14.382;2022-12-18T03:34:30;7.90;;;1.33;;
4174;SDS011;2101;48.290;14.382;2022-12-18T03:36:58;15.37;;;2.13;;
4174;SDS011;2101;48.290;14.382;2022-12-18T03:39:27;9.80;;;1.13;;
4174;SDS011;2101;48.290;14.382;2022-12-18T03:42:00;13.30;;;2.80;;
4174;SDS011;2101;48.290;14.382;2022-12-18T03:49:46;9.67;;;1.80;;
4174;SDS011;2101;48.290;14.382;2022-12-18T03:52:30;18.07;;;3.33;;
4174;SDS011;2101;48.290;14.382;2022-12-18T03:55:08;16.60;;;4.13;;
4174;SDS011;2101;48.290;14.382;2022-12-18T03:57:35;15.73;;;2.60;;
4174;SDS011;2101;48.290;14.382;2022-12-18T04:00:08;13.23;;;2.47;;
4174;SDS011;2101;48.290;14.382;2022-12-18T04:02:36;10.30;;;2.27;;
4174;SDS011;2101;48.290;14.382;2022-12-18T04:05:04;15.13;;;3.20;;
4174;SDS011;2101;48.290;14.382;2022-12-18T04:07:35;17.13;;;4.00;;
4174;SDS011;2101;48.290;14.382;2022-12-18T04:10:02;11.07;;;2.30;;
4174;SDS011;2101;48.290;14.382;2022-12-18T04:12:29;14.40;;;2.77;;
4174;SDS011;2101;48.290;14.382;2022-12-18T04:14:56;11.40;;;2.87;;
4174;SDS011;2101;48.290;14.382;2022-12-18T04:17:22;8.53;;;2.00;;
4174;SDS011;2101;48.290;14.382;2022-12-18T04:19:49;11.50;;;2.77;;
4174;SDS011;2101;48.290;14.382;2022-12-18T04:22:16;13.30;;;2.60;;
4174;SDS011;2101;48.290;14.382;2022-12-18T04:24:46;20.67;;;2.80;;
4174;SDS011;2101;48.290;14.382;2022-12-18T04:27:14;14.77;;;2.40;;
4174;SDS011;2101;48.290;14.382;2022-12-18T04:29:41;10.27;;;2.37;;
4174;SDS011;2101;48.290;14.382;2022-12-18T04:32:07;13.40;;;2.27;;
4174;SDS011;2101;48.290;14.382;2022-12-18T04:34:34;11.80;;;2.13;;
4174;SDS011;2101;48.290;14.382;2022-12-18T04:37:00;9.20;;;2.00;;
4174;SDS011;2101;48.290;14.382;2022-12-18T04:39:26;12.40;;;2.50;;
4174;SDS011;2101;48.290;14.382;2022-12-18T04:41:54;10.90;;;2.93;;
4174;SDS011;2101;48.290;14.382;2022-12-18T04:44:20;12.43;;;2.93;;
4174;SDS011;2101;48.290;14.382;2022-12-18T04:46:46;10.37;;;2.20;;
4174;SDS011;2101;48.290;14.382;2022-12-18T04:49:13;10.13;;;2.13;;
4174;SDS011;2101;48.290;14.382;2022-12-18T04:51:39;14.20;;;2.20;;
4174;SDS011;2101;48.290;14.382;2022-12-18T04:54:05;10.67;;;2.37;;
4174;SDS011;2101;48.290;14.382;2022-12-18T04:56:32;12.60;;;2.60;;
4174;SDS011;2101;48.290;14.382;2022-12-18T04:58:58;11.40;;;2.07;;
4174;SDS011;2101;48.290;14.382;2022-12-18T05:01:25;10.57;;;2.00;;
4174;SDS011;2101;48.290;14.382;2022-12-18T05:03:51;7.67;;;1.33;;
4174;SDS011;2101;48.290;14.382;2022-12-18T05:06:17;11.10;;;1.87;;
4174;SDS011;2101;48.290;14.382;2022-12-18T05:08:43;9.80;;;2.63;;
4174;SDS011;2101;48.290;14.382;2022-12-18T05:11:11;9.33;;;1.53;;
4174;SDS011;2101;48.290;14.382;2022-12-18T05:13:39;8.93;;;1.50;;
4174;SDS011;2101;48.290;14.382;2022-12-18T05:16:05;8.90;;;2.17;;
4174;SDS011;2101;48.290;14.382;2022-12-18T05:18:32;12.00;;;2.30;;
4174;SDS011;2101;48.290;14.382;2022-12-18T05:20:58;18.03;;;2.87;;
4174;SDS011;2101;48.290;14.382;2022-12-18T05:23:26;11.10;;;2.17;;
4174;SDS011;2101;48.290;14.382;2022-12-18T05:25:54;9.47;;;1.80;;
4174;SDS011;2101;48.290;14.382;2022-12-18T05:28:22;11.17;;;2.87;;
4174;SDS011;2101;48.290;14.382;2022-12-18T05:30:49;9.67;;;2.53;;
4174;SDS011;2101;48.290;14.382;2022-12-18T05:33:17;8.50;;;1.70;;
4174;SDS011;2101;48.290;14.382;2022-12-18T05:35:43;9.97;;;1.33;;
4174;SDS011;2101;48.290;14.382;2022-12-18T05:38:12;8.20;;;1.60;;
4174;SDS011;2101;48.290;14.382;2022-12-18T05:40:41;7.23;;;1.00;;
4174;SDS011;2101;48.290;14.382;2022-12-18T05:43:07;12.83;;;1.67;;
4174;SDS011;2101;48.290;14.382;2022-12-18T05:45:36;10.00;;;2.07;;
4174;SDS011;2101;48.290;14.382;2022-12-18T05:48:04;11.63;;;2.90;;
4174;SDS011;2101;48.290;14.382;2022-12-18T05:50:30;10.47;;;2.30;;
4174;SDS011;2101;48.290;14.382;2022-12-18T05:52:57;8.07;;;1.27;;
4174;SDS011;2101;48.290;14.382;2022-12-18T05:55:23;8.10;;;1.73;;
4174;SDS011;2101;48.290;14.382;2022-12-18T05:57:51;22.50;;;2.17;;
4174;SDS011;2101;48.290;14.382;2022-12-18T06:00:22;13.13;;;1.77;;
4174;SDS011;2101;48.290;14.382;2022-12-18T06:02:48;15.47;;;2.80;;
4174;SDS011;2101;48.290;14.382;2022-12-18T06:05:15;8.63;;;1.40;;
4174;SDS011;2101;48.290;14.382;2022-12-18T06:07:43;7.47;;;1.37;;
4174;SDS011;2101;48.290;14.382;2022-12-18T06:10:12;9.33;;;2.07;;
4174;SDS011;2101;48.290;14.382;2022-12-18T06:12:44;8.80;;;1.30;;
4174;SDS011;2101;48.290;14.382;2022-12-18T06:15:13;6.90;;;0.80;;
4174;SDS011;2101;48.290;14.382;2022-12-18T06:17:40;7.80;;;1.30;;
4174;SDS011;2101;48.290;14.382;2022-12-18T06:20:06;9.77;;;1.93;;
4174;SDS011;2101;48.290;14.382;2022-12-18T06:22:33;7.70;;;1.43;;
4174;SDS011;2101;48.290;14.382;2022-12-18T06:25:00;14.00;;;2.03;;
4174;SDS011;2101;48.290;14.382;2022-12-18T06:27:33;9.30;;;1.63;;
4174;SDS011;2101;48.290;14.382;2022-12-18T06:30:10;9.63;;;1.60;;
4174;SDS011;2101;48.290;14.382;2022-12-18T06:32:37;9.00;;;1.70;;
4174;SDS011;2101;48.290;14.382;2022-12-18T06:35:03;6.70;;;0.80;;
4174;SDS011;2101;48.290;14.382;2022-12-18T06:37:30;7.37;;;1.33;;
4174;SDS011;2101;48.290;14.382;2022-12-18T06:39:57;9.33;;;1.97;;
4174;SDS011;2101;48.290;14.382;2022-12-18T06:42:24;9.03;;;1.70;;
4174;SDS011;2101;48.290;14.382;2022-12-18T06:44:50;16.73;;;1.70;;
4174;SDS011;2101;48.290;14.382;2022-12-18T06:47:17;11.80;;;1.30;;
4174;SDS011;2101;48.290;14.382;2022-12-18T06:49:43;10.20;;;2.10;;
4174;SDS011;2101;48.290;14.382;2022-12-18T06:52:09;7.80;;;1.50;;
4174;SDS011;2101;48.290;14.382;2022-12-18T06:54:36;14.63;;;1.43;;
4174;SDS011;2101;48.290;14.382;2022-12-18T06:57:02;11.93;;;2.83;;
4174;SDS011;2101;48.290;14.382;2022-12-18T06:59:28;9.77;;;1.67;;
4174;SDS011;2101;48.290;14.382;2022-12-18T07:04:37;14.60;;;2.77;;
4174;SDS011;2101;48.290;14.382;2022-12-18T07:07:13;8.73;;;1.90;;
4174;SDS011;2101;48.290;14.382;2022-12-18T07:09:39;8.40;;;1.17;;
4174;SDS011;2101;48.290;14.382;2022-12-18T07:12:05;10.50;;;2.03;;
4174;SDS011;2101;48.290;14.382;2022-12-18T07:14:33;9.00;;;1.53;;
4174;SDS011;2101;48.290;14.382;2022-12-18T07:16:59;7.30;;;1.00;;
4174;SDS011;2101;48.290;14.382;2022-12-18T07:19:25;10.83;;;1.67;;
4174;SDS011;2101;48.290;14.382;2022-12-18T07:21:51;5.90;;;0.50;;
4174;SDS011;2101;48.290;14.382;2022-12-18T07:24:17;7.50;;;1.23;;
4174;SDS011;2101;48.290;14.382;2022-12-18T07:26:45;7.37;;;1.00;;
4174;SDS011;2101;48.290;14.382;2022-12-18T07:29:12;9.60;;;2.00;;
4174;SDS011;2101;48.290;14.382;2022-12-18T07:31:39;6.93;;;1.03;;
4174;SDS011;2101;48.290;14.382;2022-12-18T07:34:11;12.00;;;2.43;;
4174;SDS011;2101;48.290;14.382;2022-12-18T07:36:38;8.07;;;1.40;;
4174;SDS011;2101;48.290;14.382;2022-12-18T07:39:04;10.30;;;1.90;;
4174;SDS011;2101;48.290;14.382;2022-12-18T07:41:31;10.70;;;2.37;;
4174;SDS011;2101;48.290;14.382;2022-12-18T07:44:00;10.20;;;2.10;;
4174;SDS011;2101;48.290;14.382;2022-12-18T07:46:27;8.53;;;1.40;;
4174;SDS011;2101;48.290;14.382;2022-12-18T07:48:53;13.87;;;2.13;;
4174;SDS011;2101;48.290;14.382;2022-12-18T07:51:20;9.13;;;1.93;;
4174;SDS011;2101;48.290;14.382;2022-12-18T07:56:18;11.40;;;1.90;;
4174;SDS011;2101;48.290;14.382;2022-12-18T08:04:03;10.13;;;1.87;;
4174;SDS011;2101;48.290;14.382;2022-12-18T08:06:29;7.20;;;1.07;;
4174;SDS011;2101;48.290;14.382;2022-12-18T08:08:56;9.87;;;2.17;;
4174;SDS011;2101;48.290;14.382;2022-12-18T08:11:23;8.10;;;1.07;;
4174;SDS011;2101;48.290;14.382;2022-12-18T08:13:49;7.83;;;1.27;;
4174;SDS011;2101;48.290;14.382;2022-12-18T08:16:16;9.40;;;1.87;;
4174;SDS011;2101;48.290;14.382;2022-12-18T08:18:42;9.10;;;1.63;;
4174;SDS011;2101;48.290;14.382;2022-12-18T08:21:14;10.60;;;2.20;;
4174;SDS011;2101;48.290;14.382;2022-12-18T08:23:41;10.77;;;2.07;;
4174;SDS011;2101;48.290;14.382;2022-12-18T08:26:07;13.37;;;1.97;;
4174;SDS011;2101;48.290;14.382;2022-12-18T08:28:33;8.97;;;1.87;;
4174;SDS011;2101;48.290;14.382;2022-12-18T08:31:00;8.43;;;1.57;;
4174;SDS011;2101;48.290;14.382;2022-12-18T08:33:26;11.23;;;2.10;;
4174;SDS011;2101;48.290;14.382;2022-12-18T08:35:52;9.77;;;2.03;;
4174;SDS011;2101;48.290;14.382;2022-12-18T08:38:18;8.67;;;1.77;;
4174;SDS011;2101;48.290;14.382;2022-12-18T08:40:45;8.70;;;1.70;;
4174;SDS011;2101;48.290;14.382;2022-12-18T08:43:11;12.30;;;2.60;;
4174;SDS011;2101;48.290;14.382;2022-12-18T08:45:55;10.10;;;2.07;;
4174;SDS011;2101;48.290;14.382;2022-12-18T08:48:21;19.50;;;2.00;;
4174;SDS011;2101;48.290;14.382;2022-12-18T08:50:54;11.13;;;2.10;;
4174;SDS011;2101;48.290;14.382;2022-12-18T08:53:21;8.73;;;1.53;;
4174;SDS011;2101;48.290;14.382;2022-12-18T08:55:49;8.83;;;1.80;;
4174;SDS011;2101;48.290;14.382;2022-12-18T08:58:16;9.83;;;2.03;;
4174;SDS011;2101;48.290;14.382;2022-12-18T09:00:42;16.07;;;2.77;;
4174;SDS011;2101;48.290;14.382;2022-12-18T09:03:12;9.93;;;2.00;;
4174;SDS011;2101;48.290;14.382;2022-12-18T09:05:38;11.80;;;2.67;;
4174;SDS011;2101;48.290;14.382;2022-12-18T09:08:04;8.10;;;1.50;;
4174;SDS011;2101;48.290;14.382;2022-12-18T09:10:31;12.23;;;2.60;;
4174;SDS011;2101;48.290;14.382;2022-12-18T09:12:57;7.10;;;1.27;;
4174;SDS011;2101;48.290;14.382;2022-12-18T09:15:23;10.37;;;2.10;;
4174;SDS011;2101;48.290;14.382;2022-12-18T09:17:49;7.47;;;1.20;;
4174;SDS011;2101;48.290;14.382;2022-12-18T09:20:16;13.47;;;3.03;;
4174;SDS011;2101;48.290;14.382;2022-12-18T09:22:42;10.70;;;2.30;;
4174;SDS011;2101;48.290;14.382;2022-12-18T09:25:08;10.30;;;2.20;;
4174;SDS011;2101;48.290;14.382;2022-12-18T09:27:34;12.37;;;2.70;;
4174;SDS011;2101;48.290;14.382;2022-12-18T09:30:01;8.93;;;1.53;;
4174;SDS011;2101;48.290;14.382;2022-12-18T09:32:27;10.13;;;2.30;;
4174;SDS011;2101;48.290;14.382;2022-12-18T09:34:53;10.20;;;1.37;;
4174;SDS011;2101;48.290;14.382;2022-12-18T09:37:21;10.87;;;2.40;;
4174;SDS011;2101;48.290;14.382;2022-12-18T09:39:50;8.83;;;2.00;;
4174;SDS011;2101;48.290;14.382;2022-12-18T09:42:21;12.33;;;2.93;;
4174;SDS011;2101;48.290;14.382;2022-12-18T09:44:50;11.50;;;2.43;;
4174;SDS011;2101;48.290;14.382;2022-12-18T09:47:23;11.93;;;2.80;;
4174;SDS011;2101;48.290;14.382;2022-12-18T09:49:56;13.50;;;3.23;;
4174;SDS011;2101;48.290;14.382;2022-12-18T09:52:35;10.93;;;2.47;;
4174;SDS011;2101;48.290;14.382;2022-12-18T09:57:54;10.23;;;1.73;;
4174;SDS011;2101;48.290;14.382;2022-12-18T10:00:24;11.03;;;2.60;;
4174;SDS011;2101;48.290;14.382;2022-12-18T10:02:58;14.00;;;2.80;;
4174;SDS011;2101;48.290;14.382;2022-12-18T10:06:02;9.60;;;1.87;;
4174;SDS011;2101;48.290;14.382;2022-12-18T10:08:30;14.60;;;3.33;;
4174;SDS011;2101;48.290;14.382;2022-12-18T10:13:46;15.63;;;3.30;;
4174;SDS011;2101;48.290;14.382;2022-12-18T10:21:21;11.57;;;2.50;;
4174;SDS011;2101;48.290;14.382;2022-12-18T10:26:18;14.63;;;2.17;;
4174;SDS011;2101;48.290;14.382;2022-12-18T10:28:45;15.97;;;3.53;;
4174;SDS011;2101;48.290;14.382;2022-12-18T10:31:19;17.47;;;3.90;;
4174;SDS011;2101;48.290;14.382;2022-12-18T10:33:45;14.43;;;3.40;;
4174;SDS011;2101;48.290;14.382;2022-12-18T10:36:11;19.03;;;3.60;;
4174;SDS011;2101;48.290;14.382;2022-12-18T10:38:38;22.97;;;4.20;;
4174;SDS011;2101;48.290;14.382;2022-12-18T10:41:05;17.87;;;3.70;;
4174;SDS011;2101;48.290;14.382;2022-12-18T10:43:35;14.83;;;3.47;;
4174;SDS011;2101;48.290;14.382;2022-12-18T10:48:35;19.00;;;5.10;;
4174;SDS011;2101;48.290;14.382;2022-12-18T10:51:02;14.37;;;3.40;;
4174;SDS011;2101;48.290;14.382;2022-12-18T10:53:29;13.63;;;3.10;;
4174;SDS011;2101;48.290;14.382;2022-12-18T10:55:57;13.00;;;3.10;;
4174;SDS011;2101;48.290;14.382;2022-12-18T10:58:30;11.80;;;2.70;;
4174;SDS011;2101;48.290;14.382;2022-12-18T11:03:36;16.70;;;4.87;;
4174;SDS011;2101;48.290;14.382;2022-12-18T11:06:07;18.20;;;3.83;;
4174;SDS011;2101;48.290;14.382;2022-12-18T11:08:34;17.17;;;3.50;;
4174;SDS011;2101;48.290;14.382;2022-12-18T11:11:00;16.43;;;4.20;;
4174;SDS011;2101;48.290;14.382;2022-12-18T11:13:27;15.40;;;3.60;;
4174;SDS011;2101;48.290;14.382;2022-12-18T11:15:54;19.00;;;3.93;;
4174;SDS011;2101;48.290;14.382;2022-12-18T11:18:28;12.03;;;2.80;;
4174;SDS011;2101;48.290;14.382;2022-12-18T11:21:09;14.60;;;3.60;;
4174;SDS011;2101;48.290;14.382;2022-12-18T11:23:35;14.17;;;3.53;;
4174;SDS011;2101;48.290;14.382;2022-12-18T11:26:03;12.50;;;3.17;;
4174;SDS011;2101;48.290;14.382;2022-12-18T11:36:32;15.27;;;3.53;;
4174;SDS011;2101;48.290;14.382;2022-12-18T11:38:59;14.50;;;3.93;;
4174;SDS011;2101;48.290;14.382;2022-12-18T11:41:32;16.43;;;3.60;;
4174;SDS011;2101;48.290;14.382;2022-12-18T11:44:26;20.10;;;3.80;;
4174;SDS011;2101;48.290;14.382;2022-12-18T11:46:59;15.30;;;4.30;;
4174;SDS011;2101;48.290;14.382;2022-12-18T11:49:32;16.33;;;4.20;;
4174;SDS011;2101;48.290;14.382;2022-12-18T11:54:30;16.80;;;3.27;;
4174;SDS011;2101;48.290;14.382;2022-12-18T11:59:54;14.80;;;3.77;;
4174;SDS011;2101;48.290;14.382;2022-12-18T12:28:36;23.67;;;6.50;;
4174;SDS011;2101;48.290;14.382;2022-12-18T12:31:27;29.43;;;5.40;;
4174;SDS011;2101;48.290;14.382;2022-12-18T12:39:26;19.60;;;4.90;;
4174;SDS011;2101;48.290;14.382;2022-12-18T12:41:54;31.57;;;7.40;;
4174;SDS011;2101;48.290;14.382;2022-12-18T12:44:40;29.87;;;6.80;;
4174;SDS011;2101;48.290;14.382;2022-12-18T12:47:14;20.80;;;6.87;;
4174;SDS011;2101;48.290;14.382;2022-12-18T12:49:42;20.23;;;7.00;;
4174;SDS011;2101;48.290;14.382;2022-12-18T12:52:34;32.43;;;7.60;;
4174;SDS011;2101;48.290;14.382;2022-12-18T12:54:58;19.10;;;6.20;;
4174;SDS011;2101;48.290;14.382;2022-12-18T12:57:36;23.40;;;7.07;;
4174;SDS011;2101;48.290;14.382;2022-12-18T13:00:14;25.17;;;7.63;;
4174;SDS011;2101;48.290;14.382;2022-12-18T13:08:09;29.67;;;9.27;;
4174;SDS011;2101;48.290;14.382;2022-12-18T13:10:41;30.57;;;8.07;;
4174;SDS011;2101;48.290;14.382;2022-12-18T13:13:09;22.77;;;7.77;;
4174;SDS011;2101;48.290;14.382;2022-12-18T13:23:01;20.90;;;5.50;;
4174;SDS011;2101;48.290;14.382;2022-12-18T13:27:59;29.27;;;8.20;;
4174;SDS011;2101;48.290;14.382;2022-12-18T13:40:57;22.83;;;5.37;;
4174;SDS011;2101;48.290;14.382;2022-12-18T13:43:27;20.37;;;6.10;;
4174;SDS011;2101;48.290;14.382;2022-12-18T13:48:23;24.03;;;4.13;;
4174;SDS011;2101;48.290;14.382;2022-12-18T13:51:09;20.97;;;6.10;;
4174;SDS011;2101;48.290;14.382;2022-12-18T13:53:36;32.13;;;11.10;;
4174;SDS011;2101;48.290;14.382;2022-12-18T13:56:04;21.63;;;6.10;;
4174;SDS011;2101;48.290;14.382;2022-12-18T13:58:31;23.30;;;6.83;;
4174;SDS011;2101;48.290;14.382;2022-12-18T14:00:57;22.87;;;7.20;;
4174;SDS011;2101;48.290;14.382;2022-12-18T14:03:28;17.37;;;4.40;;
4174;SDS011;2101;48.290;14.382;2022-12-18T14:06:03;21.17;;;5.97;;
4174;SDS011;2101;48.290;14.382;2022-12-18T14:08:32;29.90;;;7.80;;
4174;SDS011;2101;48.290;14.382;2022-12-18T14:10:59;24.40;;;7.30;;
4174;SDS011;2101;48.290;14.382;2022-12-18T14:13:30;20.87;;;5.70;;
4174;SDS011;2101;48.290;14.382;2022-12-18T14:15:57;16.77;;;4.50;;
4174;SDS011;2101;48.290;14.382;2022-12-18T14:21:17;27.23;;;7.33;;
4174;SDS011;2101;48.290;14.382;2022-12-18T14:23:43;20.50;;;4.03;;
4174;SDS011;2101;48.290;14.382;2022-12-18T14:28:48;13.70;;;3.17;;
4174;SDS011;2101;48.290;14.382;2022-12-18T14:31:21;21.83;;;5.07;;
4174;SDS011;2101;48.290;14.382;2022-12-18T14:33:48;19.40;;;5.43;;
4174;SDS011;2101;48.290;14.382;2022-12-18T14:36:17;18.97;;;4.70;;
4174;SDS011;2101;48.290;14.382;2022-12-18T14:38:43;20.43;;;6.77;;
4174;SDS011;2101;48.290;14.382;2022-12-18T14:41:14;18.23;;;5.27;;
4174;SDS011;2101;48.290;14.382;2022-12-18T14:43:41;12.90;;;3.30;;
4174;SDS011;2101;48.290;14.382;2022-12-18T14:48:52;11.47;;;2.60;;
4174;SDS011;2101;48.290;14.382;2022-12-18T14:51:20;19.73;;;6.43;;
4174;SDS011;2101;48.290;14.382;2022-12-18T14:53:59;23.67;;;6.80;;
4174;SDS011;2101;48.290;14.382;2022-12-18T14:56:30;23.00;;;7.30;;
4174;SDS011;2101;48.290;14.382;2022-12-18T14:59:00;20.33;;;5.73;;
4174;SDS011;2101;48.290;14.382;2022-12-18T15:03:53;20.90;;;6.13;;
4174;SDS011;2101;48.290;14.382;2022-12-18T15:06:53;30.17;;;7.83;;
4174;SDS011;2101;48.290;14.382;2022-12-18T15:09:21;24.70;;;5.80;;
4174;SDS011;2101;48.290;14.382;2022-12-18T15:11:47;34.33;;;7.10;;
4174;SDS011;2101;48.290;14.382;2022-12-18T15:14:33;22.73;;;6.50;;
4174;SDS011;2101;48.290;14.382;2022-12-18T15:17:00;24.00;;;5.07;;
4174;SDS011;2101;48.290;14.382;2022-12-18T15:21:58;12.90;;;2.50;;
4174;SDS011;2101;48.290;14.382;2022-12-18T15:24:26;23.90;;;7.33;;
4174;SDS011;2101;48.290;14.382;2022-12-18T15:26:53;13.97;;;3.50;;
4174;SDS011;2101;48.290;14.382;2022-12-18T15:29:20;18.43;;;4.90;;
4174;SDS011;2101;48.290;14.382;2022-12-18T15:32:15;25.30;;;6.30;;
4174;SDS011;2101;48.290;14.382;2022-12-18T15:34:33;13.90;;;3.77;;
4174;SDS011;2101;48.290;14.382;2022-12-18T15:36:59;18.10;;;5.40;;
4174;SDS011;2101;48.290;14.382;2022-12-18T15:39:25;13.77;;;3.17;;
4174;SDS011;2101;48.290;14.382;2022-12-18T15:41:51;26.87;;;6.40;;
4174;SDS011;2101;48.290;14.382;2022-12-18T15:44:36;26.00;;;6.37;;
4174;SDS011;2101;48.290;14.382;2022-12-18T15:47:02;25.17;;;7.03;;
4174;SDS011;2101;48.290;14.382;2022-12-18T15:49:28;18.30;;;4.47;;
4174;SDS011;2101;48.290;14.382;2022-12-18T15:51:56;20.77;;;5.80;;
4174;SDS011;2101;48.290;14.382;2022-12-18T15:54:23;24.40;;;6.60;;
4174;SDS011;2101;48.290;14.382;2022-12-18T15:57:09;20.90;;;5.03;;
4174;SDS011;2101;48.290;14.382;2022-12-18T15:59:54;17.80;;;4.17;;
4174;SDS011;2101;48.290;14.382;2022-12-18T16:02:24;14.17;;;3.70;;
4174;SDS011;2101;48.290;14.382;2022-12-18T16:04:51;12.30;;;3.03;;
4174;SDS011;2101;48.290;14.382;2022-12-18T16:07:18;22.53;;;5.37;;
4174;SDS011;2101;48.290;14.382;2022-12-18T16:09:45;12.40;;;2.60;;
4174;SDS011;2101;48.290;14.382;2022-12-18T16:12:14;19.70;;;5.00;;
4174;SDS011;2101;48.290;14.382;2022-12-18T16:14:41;18.27;;;4.97;;
4174;SDS011;2101;48.290;14.382;2022-12-18T16:17:09;14.07;;;3.23;;
4174;SDS011;2101;48.290;14.382;2022-12-18T16:19:35;12.07;;;3.00;;
4174;SDS011;2101;48.290;14.382;2022-12-18T16:22:01;13.60;;;4.47;;
4174;SDS011;2101;48.290;14.382;2022-12-18T16:24:28;11.67;;;3.17;;
4174;SDS011;2101;48.290;14.382;2022-12-18T16:26:55;15.57;;;3.50;;
4174;SDS011;2101;48.290;14.382;2022-12-18T16:29:22;18.13;;;5.00;;
4174;SDS011;2101;48.290;14.382;2022-12-18T16:31:52;18.03;;;3.77;;
4174;SDS011;2101;48.290;14.382;2022-12-18T16:34:28;18.23;;;4.13;;
4174;SDS011;2101;48.290;14.382;2022-12-18T16:37:01;15.57;;;4.00;;
4174;SDS011;2101;48.290;14.382;2022-12-18T16:39:27;15.10;;;4.00;;
4174;SDS011;2101;48.290;14.382;2022-12-18T16:41:55;24.43;;;6.20;;
4174;SDS011;2101;48.290;14.382;2022-12-18T16:44:21;11.50;;;3.03;;
4174;SDS011;2101;48.290;14.382;2022-12-18T16:46:47;25.23;;;6.10;;
4174;SDS011;2101;48.290;14.382;2022-12-18T16:49:14;19.90;;;2.97;;
4174;SDS011;2101;48.290;14.382;2022-12-18T16:51:41;17.40;;;3.40;;
4174;SDS011;2101;48.290;14.382;2022-12-18T16:54:07;9.97;;;2.07;;
4174;SDS011;2101;48.290;14.382;2022-12-18T16:56:33;10.33;;;2.43;;
4174;SDS011;2101;48.290;14.382;2022-12-18T16:59:00;15.50;;;5.07;;
4174;SDS011;2101;48.290;14.382;2022-12-18T17:01:27;12.27;;;3.50;;
4174;SDS011;2101;48.290;14.382;2022-12-18T17:04:00;10.20;;;3.00;;
4174;SDS011;2101;48.290;14.382;2022-12-18T17:06:27;11.63;;;1.90;;
4174;SDS011;2101;48.290;14.382;2022-12-18T17:08:55;17.70;;;4.50;;
4174;SDS011;2101;48.290;14.382;2022-12-18T17:11:22;20.47;;;6.37;;
4174;SDS011;2101;48.290;14.382;2022-12-18T17:13:49;21.33;;;6.27;;
4174;SDS011;2101;48.290;14.382;2022-12-18T17:16:15;11.30;;;2.90;;
4174;SDS011;2101;48.290;14.382;2022-12-18T17:18:44;14.60;;;3.77;;
4174;SDS011;2101;48.290;14.382;2022-12-18T17:21:10;19.40;;;3.40;;